Time;durP1;ratioP1;P1;durP2;ratioP2;P2;SDS_P1;SDS_P2;PMS_P1;PMS_P2;Temp;Humidity;BMP_temperature;BMP_pressure;BME280_temperature;BME280_humidity;BME280_pressure;Samples;Min_cycle;Max_cycle;Signal;HPM_P1;HPM_P2
2022/05/27 00:00:42;;;;;;;24.73;8.70;;;16.30;99.90;;;;;;5114238;28;20136;-56
2022/05/27 00:03:10;;;;;;;18.80;8.80;;;16.20;99.90;;;;;;5114385;28;20031;-56
2022/05/27 00:05:37;;;;;;;18.67;8.25;;;16.20;99.90;;;;;;5114163;28;20027;-56
2022/05/27 00:08:03;;;;;;;19.92;7.65;;;16.20;99.90;;;;;;5114510;28;20064;-56
2022/05/27 00:10:29;;;;;;;18.83;8.15;;;16.20;99.90;;;;;;5114205;28;20103;-56
2022/05/27 00:12:55;;;;;;;17.63;8.82;;;16.10;99.90;;;;;;5114550;28;20054;-56
2022/05/27 00:15:21;;;;;;;16.58;8.63;;;16.10;99.90;;;;;;5114135;28;20027;-56
2022/05/27 00:17:47;;;;;;;20.55;7.60;;;16.10;99.90;;;;;;5114306;28;20027;-56
2022/05/27 00:20:14;;;;;;;15.77;7.40;;;16.00;99.90;;;;;;5112784;28;20377;-56
2022/05/27 00:22:40;;;;;;;12.80;6.55;;;16.00;99.90;;;;;;5093625;28;20345;-56
2022/05/27 00:25:07;;;;;;;23.73;8.05;;;16.00;99.90;;;;;;5094012;28;20232;-56
2022/05/27 00:27:33;;;;;;;16.08;8.05;;;16.10;99.90;;;;;;5098969;28;20032;-56
2022/05/27 00:29:59;;;;;;;14.63;7.45;;;16.10;99.90;;;;;;5114484;28;20020;-56
2022/05/27 00:32:25;;;;;;;14.57;6.95;;;16.00;99.90;;;;;;5113916;28;20396;-56
2022/05/27 00:34:51;;;;;;;18.65;8.05;;;16.00;99.90;;;;;;5114216;28;20497;-56
2022/05/27 00:37:17;;;;;;;15.50;6.72;;;16.00;99.90;;;;;;5114103;28;20039;-56
2022/05/27 00:39:43;;;;;;;16.67;6.65;;;16.00;99.90;;;;;;5114106;28;20031;-56
2022/05/27 00:42:09;;;;;;;16.98;7.97;;;15.90;99.90;;;;;;5114040;28;20102;-56
2022/05/27 00:44:35;;;;;;;13.00;7.97;;;15.90;99.90;;;;;;5113795;28;20028;-56
2022/05/27 00:47:14;;;;;;;15.00;8.25;;;15.90;99.90;;;;;;5113968;28;20102;-56
2022/05/27 00:49:53;;;;;;;12.90;7.10;;;15.90;99.90;;;;;;5114002;28;20045;-56
2022/05/27 00:52:22;;;;;;;19.48;7.65;;;16.00;99.90;;;;;;5113917;28;20020;-56
2022/05/27 00:54:48;;;;;;;11.43;6.93;;;16.00;99.90;;;;;;5114162;28;20034;-56
2022/05/27 00:57:32;;;;;;;14.02;6.60;;;16.00;99.90;;;;;;5113827;28;20201;-56
2022/05/27 01:00:07;;;;;;;14.75;7.20;;;15.90;99.90;;;;;;5114068;28;20019;-56
2022/05/27 01:02:34;;;;;;;13.95;6.82;;;15.90;99.90;;;;;;5113831;28;20032;-56
2022/05/27 01:05:02;;;;;;;14.27;6.93;;;15.80;99.90;;;;;;5116131;28;20035;-56
2022/05/27 01:07:29;;;;;;;16.55;6.38;;;15.80;99.90;;;;;;5117587;28;20023;-56
2022/05/27 01:09:56;;;;;;;13.50;6.72;;;15.80;99.90;;;;;;5117697;28;20026;-56
2022/05/27 01:12:45;;;;;;;14.95;6.28;;;15.80;99.90;;;;;;5117198;28;20031;-56
2022/05/27 01:15:36;;;;;;;13.93;6.28;;;15.70;99.90;;;;;;5117599;28;20491;-56
2022/05/27 01:18:02;;;;;;;;;;;15.70;99.90;;;;;;5117785;28;20411;-56
2022/05/27 01:20:47;;;;;;;18.85;6.70;;;15.70;99.90;;;;;;5113738;28;19951;-56
2022/05/27 01:23:37;;;;;;;17.45;6.63;;;15.70;99.90;;;;;;5096999;28;20101;-56
2022/05/27 01:26:22;;;;;;;18.13;7.00;;;15.70;99.90;;;;;;5096867;28;20028;-56
2022/05/27 01:28:53;;;;;;;13.25;5.88;;;15.60;99.90;;;;;;5112444;28;20474;-56
2022/05/27 01:31:38;;;;;;;10.65;6.07;;;15.70;99.90;;;;;;5117172;28;20028;-56
2022/05/27 01:34:30;;;;;;;14.05;6.32;;;15.60;99.90;;;;;;5116821;28;20076;-57
2022/05/27 01:37:12;;;;;;;14.68;6.70;;;15.60;99.90;;;;;;5117033;28;20092;-56
2022/05/27 01:39:56;;;;;;;14.82;7.10;;;15.60;99.90;;;;;;5117072;28;20031;-56
2022/05/27 01:42:33;;;;;;;13.75;6.30;;;15.60;99.90;;;;;;5116756;28;20099;-56
2022/05/27 01:45:02;;;;;;;13.60;6.63;;;15.60;99.90;;;;;;5116939;28;20407;-56
2022/05/27 01:47:53;;;;;;;10.45;6.07;;;15.60;99.90;;;;;;5116746;28;20047;-56
2022/05/27 01:50:35;;;;;;;14.68;6.03;;;15.50;99.90;;;;;;5116921;28;20028;-56
2022/05/27 01:53:32;;;;;;;14.88;6.32;;;15.50;99.90;;;;;;5116647;28;20028;-56
2022/05/27 01:56:13;;;;;;;13.45;6.72;;;15.40;99.90;;;;;;5116665;28;20015;-56
2022/05/27 01:58:46;;;;;;;12.90;6.40;;;15.40;99.90;;;;;;5116863;28;20169;-56
2022/05/27 02:01:19;;;;;;;13.32;6.25;;;15.40;99.90;;;;;;5116552;28;20038;-56
2022/05/27 02:04:06;;;;;;;16.52;6.75;;;15.30;99.90;;;;;;5116845;28;20059;-56
2022/05/27 02:06:45;;;;;;;15.55;6.35;;;15.30;99.90;;;;;;5116224;28;20366;-56
2022/05/27 02:09:24;;;;;;;12.23;6.80;;;15.30;99.90;;;;;;5116686;28;20055;-56
2022/05/27 02:12:02;;;;;;;14.02;6.55;;;15.30;99.90;;;;;;5116419;28;20029;-56
2022/05/27 02:14:43;;;;;;;13.77;6.15;;;15.30;99.90;;;;;;5116411;28;20430;-56
2022/05/27 02:17:18;;;;;;;14.95;5.90;;;15.20;99.90;;;;;;5115722;28;20114;-56
2022/05/27 02:20:00;;;;;;;13.63;6.53;;;15.20;99.90;;;;;;5116391;28;20068;-56
2022/05/27 02:22:32;;;;;;;14.45;7.28;;;15.20;99.90;;;;;;5095747;28;20040;-56
2022/05/27 02:25:30;;;;;;;18.63;7.43;;;15.20;99.90;;;;;;5095753;28;20067;-56
2022/05/27 02:28:02;;;;;;;11.48;6.20;;;15.20;99.90;;;;;;5087779;28;20429;-56
2022/05/27 02:30:30;;;;;;;18.15;6.22;;;15.30;99.90;;;;;;5115555;28;20358;-56
2022/05/27 02:35:58;;;;;;;13.05;7.10;;;15.30;99.90;;;;;;5115741;28;20059;-56
2022/05/27 02:38:27;;;;;;;14.20;6.93;;;15.30;99.90;;;;;;5115727;28;20107;-56
2022/05/27 02:41:03;;;;;;;15.40;6.88;;;15.30;99.90;;;;;;5115797;28;20047;-56
2022/05/27 02:43:41;;;;;;;13.55;7.40;;;15.30;99.90;;;;;;5115381;28;20053;-56
2022/05/27 02:46:48;;;;;;;14.40;7.45;;;15.30;99.90;;;;;;5115713;28;20023;-56
2022/05/27 02:50:28;;;;;;;14.45;6.97;;;15.40;99.90;;;;;;5115666;28;20511;-56
2022/05/27 02:52:57;;;;;;;17.77;7.22;;;15.40;99.90;;;;;;4996301;28;20027;-56
2022/05/27 02:55:29;;;;;;;16.92;7.80;;;15.40;99.90;;;;;;5052198;28;20025;-56
2022/05/27 02:57:58;;;;;;;15.65;7.60;;;15.50;99.90;;;;;;5052306;28;20410;-56
2022/05/27 03:00:28;;;;;;;16.38;8.10;;;15.50;99.90;;;;;;5052093;28;20029;-56
2022/05/27 03:02:59;;;;;;;14.88;7.85;;;15.60;99.90;;;;;;5052399;28;20033;-56
2022/05/27 03:05:36;;;;;;;18.48;7.38;;;15.60;99.90;;;;;;5051919;28;20072;-56
2022/05/27 03:08:40;;;;;;;14.85;8.02;;;15.70;99.90;;;;;;5052281;28;20028;-57
2022/05/27 03:11:27;;;;;;;14.77;7.45;;;15.60;99.90;;;;;;5052173;28;20116;-57
2022/05/27 03:14:07;;;;;;;14.82;6.82;;;15.70;99.90;;;;;;5052112;28;20045;-56
2022/05/27 03:16:58;;;;;;;19.83;6.90;;;15.70;99.90;;;;;;5051817;28;20063;-56
2022/05/27 03:19:47;;;;;;;;;;;15.70;99.90;;;;;;5052165;28;20501;-56
2022/05/27 03:22:27;;;;;;;11.20;6.43;;;15.70;99.90;;;;;;5012212;28;20087;-57
2022/05/27 03:25:18;;;;;;;13.80;6.20;;;15.80;99.90;;;;;;5094590;28;20495;-56
2022/05/27 03:28:12;;;;;;;13.15;6.75;;;15.80;99.90;;;;;;5100297;28;20110;-56
2022/05/27 03:30:50;;;;;;;13.57;6.40;;;15.70;99.90;;;;;;5114801;28;20027;-56
2022/05/27 03:33:48;;;;;;;10.93;6.03;;;15.70;99.90;;;;;;5114741;28;20810;-56
2022/05/27 03:36:23;;;;;;;10.63;6.03;;;15.80;99.90;;;;;;5114575;28;20043;-56
2022/05/27 03:38:59;;;;;;;20.90;7.80;;;15.80;99.90;;;;;;5114899;28;20035;-56
2022/05/27 03:41:54;;;;;;;21.67;7.07;;;15.80;99.90;;;;;;5114390;28;20465;-57
2022/05/27 03:44:26;;;;;;;16.52;8.07;;;15.90;99.90;;;;;;5112666;28;20063;-57
2022/05/27 03:46:54;;;;;;;23.85;8.45;;;15.80;99.90;;;;;;5114746;28;20028;-56
2022/05/27 03:49:21;;;;;;;18.05;8.10;;;15.80;99.90;;;;;;5114421;28;20568;-57
2022/05/27 03:51:56;;;;;;;18.55;8.60;;;15.70;99.90;;;;;;5114599;28;20031;-56
2022/05/27 03:54:22;;;;;;;19.90;8.82;;;15.70;99.90;;;;;;5114316;28;20127;-56
2022/05/27 03:56:49;;;;;;;19.40;8.45;;;15.70;99.90;;;;;;5114421;28;20028;-57
2022/05/27 03:59:17;;;;;;;18.27;8.20;;;15.70;99.90;;;;;;5114598;28;20169;-56
2022/05/27 04:01:46;;;;;;;17.10;7.43;;;15.70;99.90;;;;;;5114280;28;20471;-56
2022/05/27 04:04:15;;;;;;;14.60;6.90;;;15.70;99.90;;;;;;5114378;28;20104;-57
2022/05/27 04:06:41;;;;;;;23.40;9.10;;;15.70;99.90;;;;;;5114419;28;20039;-56
2022/05/27 04:09:08;;;;;;;25.60;9.10;;;15.70;99.90;;;;;;5114539;28;20080;-56
2022/05/27 04:11:34;;;;;;;17.92;7.28;;;15.80;99.90;;;;;;5114216;28;20473;-56
2022/05/27 04:14:01;;;;;;;17.95;7.80;;;15.90;99.90;;;;;;5114785;28;20028;-57
2022/05/27 04:16:27;;;;;;;14.15;7.05;;;16.00;99.90;;;;;;5114004;28;20073;-57
2022/05/27 04:18:53;;;;;;;15.80;7.00;;;16.00;99.90;;;;;;5114441;28;20035;-57
2022/05/27 04:21:21;;;;;;;20.05;7.72;;;16.00;99.90;;;;;;5103087;28;20429;-57
2022/05/27 04:23:47;;;;;;;13.00;6.28;;;16.10;99.90;;;;;;5093744;28;20083;-56
2022/05/27 04:26:13;;;;;;;14.80;7.35;;;16.10;99.90;;;;;;5093990;28;20093;-57
2022/05/27 04:28:39;;;;;;;16.02;7.30;;;16.20;99.90;;;;;;5108210;28;20036;-56
2022/05/27 04:31:05;;;;;;;22.98;9.10;;;16.20;99.90;;;;;;5114126;28;20053;-57
2022/05/27 04:33:31;;;;;;;23.38;9.02;;;16.30;99.90;;;;;;5114188;28;20073;-56
2022/05/27 04:35:58;;;;;;;24.92;8.32;;;16.50;99.90;;;;;;5114237;28;20071;-57
2022/05/27 04:38:25;;;;;;;26.85;10.25;;;16.60;99.90;;;;;;5113907;28;20386;-57
2022/05/27 04:40:51;;;;;;;34.70;10.55;;;16.70;99.90;;;;;;5118379;28;20076;-57
2022/05/27 04:43:18;;;;;;;33.55;11.70;;;16.80;99.90;;;;;;5118073;28;20055;-57
2022/05/27 04:45:45;;;;;;;33.80;10.45;;;16.90;99.90;;;;;;5117716;28;20101;-56
2022/05/27 04:48:11;;;;;;;25.80;10.32;;;17.00;99.90;;;;;;5118255;28;20031;-57
2022/05/27 04:50:37;;;;;;;29.38;10.05;;;17.10;99.90;;;;;;5117971;28;20034;-56
2022/05/27 04:53:04;;;;;;;25.25;9.15;;;17.20;99.90;;;;;;5117680;28;20089;-57
2022/05/27 04:55:33;;;;;;;27.50;10.90;;;17.40;99.90;;;;;;5117773;28;20419;-57
2022/05/27 04:57:59;;;;;;;28.55;10.13;;;17.50;99.90;;;;;;5118144;28;20031;-57
2022/05/27 05:00:36;;;;;;;26.17;9.43;;;17.50;99.90;;;;;;5117354;28;20098;-57
2022/05/27 05:03:02;;;;;;;43.50;11.63;;;17.60;99.90;;;;;;5117772;28;20039;-57
2022/05/27 05:05:31;;;;;;;38.50;10.20;;;17.70;99.90;;;;;;5117234;28;20101;-57
2022/05/27 05:08:08;;;;;;;32.80;10.73;;;17.80;99.90;;;;;;5117917;28;20107;-57
2022/05/27 05:10:35;;;;;;;44.22;12.52;;;17.90;99.90;;;;;;5117540;28;20483;-57
2022/05/27 05:13:02;;;;;;;35.75;11.35;;;18.00;99.90;;;;;;5098784;28;20168;-57
2022/05/27 05:15:28;;;;;;;30.75;11.23;;;18.20;99.90;;;;;;5101797;28;20032;-57
2022/05/27 05:17:54;;;;;;;39.25;10.80;;;18.20;99.90;;;;;;5085931;28;20032;-57
2022/05/27 05:20:26;;;;;;;26.67;11.10;;;18.30;99.90;;;;;;5090463;28;20508;-57
2022/05/27 05:22:52;;;;;;;37.50;10.65;;;18.30;99.90;;;;;;5090610;28;20067;-57
2022/05/27 05:25:18;;;;;;;33.50;10.18;;;18.50;99.90;;;;;;5090776;28;20442;-57
2022/05/27 05:27:45;;;;;;;31.30;11.05;;;18.60;99.90;;;;;;5089982;28;20024;-57
2022/05/27 05:30:15;;;;;;;25.48;10.13;;;18.70;99.90;;;;;;5094051;28;20060;-57
2022/05/27 05:32:41;;;;;;;28.75;11.07;;;18.80;99.90;;;;;;5087252;28;20032;-57
2022/05/27 05:35:09;;;;;;;48.42;13.48;;;18.90;99.90;;;;;;5081745;28;20112;-57
2022/05/27 05:37:35;;;;;;;26.10;9.68;;;19.00;99.90;;;;;;5088464;28;20024;-57
2022/05/27 05:40:05;;;;;;;33.97;11.10;;;19.20;99.90;;;;;;5096255;28;21620;-57
2022/05/27 05:42:31;;;;;;;25.92;10.05;;;19.20;99.90;;;;;;5088363;28;20097;-57
2022/05/27 05:44:59;;;;;;;25.00;9.75;;;19.30;99.90;;;;;;5092577;28;20028;-57
2022/05/27 05:47:25;;;;;;;22.58;9.95;;;19.50;99.90;;;;;;5088755;28;20024;-57
2022/05/27 05:49:51;;;;;;;23.60;9.98;;;19.60;99.90;;;;;;5085502;28;20024;-57
2022/05/27 05:52:17;;;;;;;35.42;10.55;;;19.70;99.90;;;;;;5089198;28;20028;-57
2022/05/27 05:54:44;;;;;;;23.50;8.30;;;19.80;99.90;;;;;;5085444;28;20115;-57
2022/05/27 05:57:10;;;;;;;29.95;11.00;;;20.00;99.90;;;;;;5085323;28;20081;-57
2022/05/27 05:59:38;;;;;;;31.67;9.90;;;20.10;99.90;;;;;;5095139;28;20039;-57
2022/05/27 06:02:05;;;;;;;29.58;10.95;;;20.20;99.90;;;;;;5070349;28;20035;-57
2022/05/27 06:04:31;;;;;;;30.75;9.60;;;20.00;99.90;;;;;;5082943;28;20040;-57
2022/05/27 06:06:57;;;;;;;28.67;10.18;;;20.10;99.90;;;;;;5092014;28;20036;-57
2022/05/27 06:09:25;;;;;;;20.70;9.35;;;20.20;99.90;;;;;;5097559;28;20028;-57
2022/05/27 06:11:56;;;;;;;24.52;9.98;;;20.40;99.90;;;;;;5095665;28;20032;-57
2022/05/27 06:14:23;;;;;;;28.63;9.40;;;20.60;99.90;;;;;;5093339;28;20473;-57
2022/05/27 06:16:52;;;;;;;18.02;8.25;;;20.90;99.90;;;;;;5083628;28;20094;-57
2022/05/27 06:19:18;;;;;;;17.07;8.27;;;21.00;99.90;;;;;;5088430;28;20028;-58
2022/05/27 06:21:44;;;;;;;22.63;8.07;;;21.20;99.90;;;;;;5081457;28;20626;-58
2022/05/27 06:24:10;;;;;;;27.02;9.75;;;21.30;99.90;;;;;;5080637;28;20077;-59
2022/05/27 06:26:40;;;;;;;22.05;8.25;;;21.40;99.90;;;;;;5078793;28;20056;-58
2022/05/27 06:34:36;;;;;;;23.52;7.53;;;21.70;99.90;;;;;;5081058;28;20055;-58
2022/05/27 06:37:21;;;;;;;17.45;7.35;;;21.80;99.90;;;;;;5080091;28;20032;-59
2022/05/27 06:39:48;;;;;;;16.73;6.95;;;22.00;99.90;;;;;;5086694;28;20063;-58
2022/05/27 06:42:16;;;;;;;25.05;8.40;;;21.90;99.90;;;;;;5053094;28;20477;-58
2022/05/27 06:44:42;;;;;;;18.35;6.93;;;22.10;99.90;;;;;;5061940;28;20032;-58
2022/05/27 06:47:09;;;;;;;17.88;7.53;;;22.20;99.90;;;;;;5064497;28;20036;-59
2022/05/27 06:49:37;;;;;;;18.63;7.10;;;22.40;99.90;;;;;;5059668;28;20115;-59
2022/05/27 06:52:04;;;;;;;17.73;6.43;;;22.50;99.90;;;;;;5062192;28;20474;-59
2022/05/27 06:54:30;;;;;;;16.45;6.32;;;22.70;99.90;;;;;;5075019;28;20028;-59
2022/05/27 06:56:56;;;;;;;13.77;5.88;;;22.60;99.90;;;;;;5074891;28;20462;-59
2022/05/27 06:59:23;;;;;;;29.48;8.50;;;23.00;98.70;;;;;;5073839;28;20056;-59
2022/05/27 07:01:49;;;;;;;23.80;6.45;;;23.30;99.90;;;;;;5072304;28;20496;-59
2022/05/27 07:04:17;;;;;;;23.50;6.40;;;23.80;98.30;;;;;;5064107;28;20056;-59
2022/05/27 07:06:45;;;;;;;21.23;7.03;;;24.10;96.00;;;;;;5060127;28;20104;-59
2022/05/27 07:09:13;;;;;;;19.08;6.53;;;24.30;93.60;;;;;;5064743;28;20060;-59
2022/05/27 07:11:43;;;;;;;14.80;5.28;;;24.40;92.50;;;;;;5070287;28;20024;-59
2022/05/27 07:14:11;;;;;;;15.13;5.85;;;24.60;92.10;;;;;;5065677;28;20424;-59
2022/05/27 07:16:38;;;;;;;18.90;5.90;;;24.80;92.10;;;;;;5056474;28;20085;-59
2022/05/27 07:19:05;;;;;;;31.17;8.13;;;25.10;91.80;;;;;;5062528;28;20029;-59
2022/05/27 07:21:31;;;;;;;11.40;5.50;;;25.40;90.80;;;;;;5063499;28;20060;-59
2022/05/27 07:23:57;;;;;;;15.43;5.70;;;25.70;91.20;;;;;;5064375;28;20021;-59
2022/05/27 07:26:24;;;;;;;15.85;5.80;;;25.90;77.90;;;;;;5069144;28;20039;-59
2022/05/27 07:28:50;;;;;;;12.40;5.20;;;26.00;82.90;;;;;;5073325;28;20409;-59
2022/05/27 07:31:17;;;;;;;13.32;5.18;;;26.60;73.60;;;;;;5075044;28;20032;-59
2022/05/27 07:33:44;;;;;;;19.42;5.78;;;26.70;69.90;;;;;;5073834;28;20450;-59
2022/05/27 07:36:11;;;;;;;23.70;7.97;;;26.70;71.50;;;;;;5068514;28;20053;-59
2022/05/27 07:38:37;;;;;;;17.27;5.60;;;26.60;75.80;;;;;;5073533;28;20480;-59
2022/05/27 07:41:05;;;;;;;11.85;5.45;;;27.20;74.60;;;;;;5070398;28;20045;-59
2022/05/27 07:43:32;;;;;;;17.48;6.30;;;27.40;69.60;;;;;;5068744;28;20115;-59
2022/05/27 07:45:59;;;;;;;16.65;5.75;;;27.60;65.40;;;;;;5062588;28;20025;-58
2022/05/27 07:48:25;;;;;;;12.93;5.78;;;27.30;62.40;;;;;;5068095;28;20027;-59
2022/05/27 07:50:52;;;;;;;17.35;5.70;;;27.30;65.10;;;;;;5082821;28;20040;-59
2022/05/27 07:53:19;;;;;;;16.10;6.55;;;27.10;66.20;;;;;;5070958;28;20094;-59
2022/05/27 07:55:45;;;;;;;12.05;5.05;;;27.80;65.70;;;;;;5070977;28;20021;-59
2022/05/27 07:58:11;;;;;;;13.90;4.57;;;28.20;60.90;;;;;;5072598;28;20029;-59
2022/05/27 08:00:38;;;;;;;15.55;5.47;;;28.70;64.40;;;;;;5071738;28;20042;-59
2022/05/27 08:03:05;;;;;;;27.35;5.45;;;28.60;56.50;;;;;;5068958;28;20083;-59
2022/05/27 08:05:32;;;;;;;17.52;4.80;;;29.00;58.70;;;;;;5063187;28;20037;-59
2022/05/27 08:07:59;;;;;;;8.98;3.42;;;29.50;61.00;;;;;;5067711;28;20067;-59
2022/05/27 08:10:31;;;;;;;14.95;4.53;;;29.90;53.30;;;;;;5048830;28;20111;-59
2022/05/27 08:12:58;;;;;;;10.02;3.83;;;30.20;54.50;;;;;;5067492;28;20116;-59
2022/05/27 08:15:24;;;;;;;14.25;3.90;;;30.20;52.80;;;;;;5069915;28;20036;-59
2022/05/27 08:17:51;;;;;;;15.65;4.50;;;30.20;52.20;;;;;;5081182;28;20028;-59
2022/05/27 08:20:28;;;;;;;17.30;5.07;;;30.50;53.80;;;;;;5079937;28;20029;-59
2022/05/27 08:22:58;;;;;;;;;;;30.80;51.30;;;;;;5072118;28;20506;-59
2022/05/27 08:25:32;;;;;;;12.68;4.55;;;31.00;51.60;;;;;;5066910;28;20102;-59
2022/05/27 08:28:01;;;;;;;13.80;3.90;;;31.10;49.20;;;;;;5075974;28;20024;-59
2022/05/27 08:30:41;;;;;;;14.57;4.38;;;31.40;48.70;;;;;;5086889;28;20024;-59
2022/05/27 08:33:11;;;;;;;18.20;4.47;;;31.00;47.00;;;;;;5071757;28;20025;-59
2022/05/27 08:38:28;;;;;;;8.88;4.20;;;31.70;50.80;;;;;;5069450;28;20562;-59
2022/05/27 08:41:03;;;;;;;11.25;4.70;;;32.00;48.30;;;;;;5097528;28;20020;-59
2022/05/27 08:43:44;;;;;;;20.75;6.20;;;32.30;46.80;;;;;;5097664;28;20034;-59
2022/05/27 08:46:34;;;;;;;14.35;5.47;;;31.60;46.40;;;;;;5076135;28;20075;-59
2022/05/27 08:49:06;;;;;;;20.63;7.28;;;31.90;47.20;;;;;;5062542;28;20021;-59
2022/05/27 08:51:53;;;;;;;8.70;4.53;;;31.80;47.40;;;;;;5091966;28;20051;-59
2022/05/27 08:54:55;;;;;;;12.70;5.32;;;32.40;50.50;;;;;;5066371;28;20024;-59
2022/05/27 09:00:15;;;;;;;17.73;6.40;;;32.20;46.90;;;;;;5072011;28;20032;-59
2022/05/27 09:03:00;;;;;;;26.50;7.13;;;32.10;47.20;;;;;;5064653;28;20846;-59
2022/05/27 09:05:29;;;;;;;13.57;4.97;;;32.40;47.30;;;;;;5071330;28;20059;-58
2022/05/27 09:08:12;;;;;;;7.85;3.90;;;32.50;46.10;;;;;;5072478;28;20099;-59
2022/05/27 09:11:10;;;;;;;11.40;4.63;;;32.30;46.00;;;;;;5068836;28;20585;-59
2022/05/27 09:13:43;;;;;;;9.05;4.35;;;32.60;47.10;;;;;;5075467;28;20070;-59
2022/05/27 09:16:16;;;;;;;13.55;6.13;;;32.50;43.80;;;;;;5075461;28;20060;-59
2022/05/27 09:19:02;;;;;;;10.80;4.88;;;32.20;45.50;;;;;;5077592;28;20040;-59
2022/05/27 09:22:02;;;;;;;16.40;5.55;;;32.60;44.50;;;;;;5076326;28;20470;-59
2022/05/27 09:24:46;;;;;;;17.42;5.88;;;32.80;44.20;;;;;;5066265;28;20535;-59
2022/05/27 09:27:19;;;;;;;14.30;5.45;;;32.50;44.70;;;;;;5068751;28;20060;-59
2022/05/27 09:30:01;;;;;;;10.88;4.90;;;31.20;47.50;;;;;;5074660;28;20016;-59
2022/05/27 09:32:30;;;;;;;8.98;5.00;;;32.00;47.70;;;;;;5067168;28;20029;-59
2022/05/27 09:35:02;;;;;;;9.18;5.00;;;32.60;47.70;;;;;;5062597;28;20089;-59
2022/05/27 09:37:38;;;;;;;10.18;4.60;;;33.40;45.20;;;;;;5090867;28;20031;-59
2022/05/27 09:40:18;;;;;;;7.45;3.95;;;33.60;43.10;;;;;;5096532;28;20042;-59
2022/05/27 09:42:54;;;;;;;13.43;5.07;;;32.80;42.80;;;;;;5090310;28;20387;-59
2022/05/27 09:45:23;;;;;;;9.55;4.93;;;33.20;42.30;;;;;;5066957;28;20501;-58
2022/05/27 09:47:51;;;;;;;14.18;5.40;;;33.00;42.80;;;;;;5066716;28;20489;-58
2022/05/27 09:50:41;;;;;;;15.60;5.80;;;33.30;43.50;;;;;;5078612;28;20127;-59
2022/05/27 09:53:16;;;;;;;17.45;5.25;;;33.30;43.00;;;;;;5070993;28;20036;-59
2022/05/27 09:56:15;;;;;;;14.52;5.30;;;33.40;42.50;;;;;;5061358;28;21499;-59
2022/05/27 09:58:46;;;;;;;15.37;5.87;;;33.40;41.00;;;;;;5037323;28;20067;-59
2022/05/27 10:01:23;;;;;;;23.88;5.93;;;33.40;42.40;;;;;;5077465;28;20024;-59
2022/05/27 10:04:11;;;;;;;13.00;4.22;;;32.60;41.90;;;;;;5080929;28;20075;-58
2022/05/27 10:06:37;;;;;;;15.30;4.15;;;31.90;42.60;;;;;;5069449;28;20024;-58
2022/05/27 10:09:06;;;;;;;9.27;4.90;;;32.70;43.50;;;;;;5084733;28;20033;-58
2022/05/27 10:11:54;;;;;;;16.35;5.38;;;33.30;43.30;;;;;;5069156;28;20028;-58
2022/05/27 10:14:29;;;;;;;31.60;13.95;;;33.10;43.50;;;;;;5067517;28;20040;-59
2022/05/27 10:17:13;;;;;;;18.65;5.28;;;33.70;45.60;;;;;;5072799;28;20564;-59
2022/05/27 10:19:42;;;;;;;21.13;6.22;;;34.40;45.20;;;;;;5065414;28;20474;-58
2022/05/27 10:22:22;;;;;;;15.38;5.65;;;34.80;40.60;;;;;;5083672;28;20020;-58
2022/05/27 10:25:02;;;;;;;18.20;5.13;;;34.80;38.30;;;;;;5074552;28;20343;-59
2022/05/27 10:27:38;;;;;;;14.32;5.25;;;33.50;39.70;;;;;;5066420;28;20072;-58
2022/05/27 10:30:27;;;;;;;15.50;4.70;;;33.90;41.60;;;;;;5060768;28;20455;-58
2022/05/27 10:32:54;;;;;;;10.10;4.80;;;33.30;39.60;;;;;;5062101;28;20036;-58
2022/05/27 10:35:25;;;;;;;13.60;4.38;;;33.80;39.10;;;;;;5069792;28;20132;-58
2022/05/27 10:38:09;;;;;;;12.15;5.38;;;34.10;38.70;;;;;;5074564;28;20078;-58
2022/05/27 10:40:55;;;;;;;12.57;4.55;;;34.00;38.60;;;;;;5069766;28;20107;-58
2022/05/27 10:43:54;;;;;;;14.13;6.07;;;33.60;40.70;;;;;;5071749;28;20106;-58
2022/05/27 10:46:35;;;;;;;11.27;4.70;;;33.60;42.50;;;;;;5073659;28;20032;-59
2022/05/27 10:49:10;;;;;;;11.35;4.80;;;34.40;40.10;;;;;;5073290;28;20455;-59
2022/05/27 10:51:55;;;;;;;15.40;5.18;;;34.90;39.20;;;;;;5070919;28;20052;-59
2022/05/27 10:54:31;;;;;;;12.85;5.65;;;35.20;37.40;;;;;;5068153;28;20071;-59
2022/05/27 11:03:25;;;;;;;15.63;5.28;;;34.50;40.20;;;;;;5072080;28;20063;-59
2022/05/27 11:06:32;;;;;;;13.63;5.40;;;35.00;39.30;;;;;;5074271;28;20028;-60
2022/05/27 11:09:06;;;;;;;12.43;4.95;;;35.50;38.80;;;;;;5066716;28;20049;-60
2022/05/27 11:12:13;;;;;;;19.90;6.22;;;35.20;39.00;;;;;;5073410;28;20056;-60
2022/05/27 11:15:12;;;;;;;16.13;6.20;;;35.30;40.30;;;;;;5068296;28;20021;-60
2022/05/27 11:18:10;;;;;;;16.25;6.55;;;35.60;37.30;;;;;;5065553;28;20108;-60
2022/05/27 11:20:56;;;;;;;28.85;8.60;;;35.90;40.80;;;;;;5058001;28;20029;-60
2022/05/27 11:23:43;;;;;;;22.23;8.35;;;36.00;37.40;;;;;;5059814;28;20369;-60
2022/05/27 11:26:21;;;;;;;18.83;6.38;;;36.00;37.80;;;;;;5060554;28;20057;-60
2022/05/27 11:28:52;;;;;;;29.33;7.70;;;35.90;37.20;;;;;;5063030;28;20108;-60
2022/05/27 11:31:54;;;;;;;29.13;8.13;;;35.40;37.60;;;;;;5071477;28;20050;-60
2022/05/27 11:34:30;;;;;;;14.77;5.78;;;35.70;41.90;;;;;;5070093;28;20840;-60
2022/05/27 11:37:20;;;;;;;13.82;6.35;;;35.70;40.50;;;;;;5095555;28;20027;-60
2022/05/27 11:40:05;;;;;;;37.47;8.95;;;36.00;37.80;;;;;;5090236;28;20448;-60
2022/05/27 11:42:56;;;;;;;21.95;6.25;;;36.20;38.40;;;;;;5090728;28;20658;-60
2022/05/27 11:45:28;;;;;;;18.15;6.10;;;36.30;39.00;;;;;;5092438;28;20178;-60
2022/05/27 11:47:58;;;;;;;16.10;5.82;;;36.40;37.60;;;;;;5102564;28;20102;-60
2022/05/27 11:50:51;;;;;;;21.40;5.85;;;36.60;39.80;;;;;;5091339;28;20118;-60
2022/05/27 11:53:25;;;;;;;24.25;7.50;;;36.70;37.30;;;;;;5092676;28;20087;-59
2022/05/27 11:55:54;;;;;;;13.77;5.47;;;36.00;38.00;;;;;;5082567;28;20033;-59
2022/05/27 11:58:26;;;;;;;19.60;6.38;;;36.00;38.40;;;;;;5088843;28;20025;-59
2022/05/27 12:01:04;;;;;;;37.72;7.60;;;35.80;37.20;;;;;;5092370;28;20031;-59
2022/05/27 12:03:58;;;;;;;17.77;6.10;;;35.90;40.00;;;;;;5084421;28;20060;-59
2022/05/27 12:06:32;;;;;;;19.83;6.35;;;35.30;38.60;;;;;;5075274;28;20552;-60
2022/05/27 12:09:06;;;;;;;17.45;6.70;;;36.10;39.70;;;;;;5081222;28;20024;-59
2022/05/27 12:11:59;;;;;;;27.20;9.32;;;36.40;38.40;;;;;;5091861;28;20035;-59
2022/05/27 12:14:29;;;;;;;12.65;5.50;;;36.60;36.80;;;;;;5081432;28;20044;-59
2022/05/27 12:16:56;;;;;;;;;;;35.90;37.50;;;;;;5090676;28;20111;-59
2022/05/27 12:19:29;;;;;;;24.17;7.32;;;35.40;37.60;;;;;;5112131;28;19916;-59
2022/05/27 12:22:21;;;;;;;15.25;6.15;;;36.00;36.60;;;;;;5099641;28;20500;-59
2022/05/27 12:24:51;;;;;;;17.20;7.60;;;35.80;38.50;;;;;;5101026;28;20435;-59
2022/05/27 12:27:19;;;;;;;15.18;5.65;;;35.50;37.50;;;;;;5098662;28;20038;-59
2022/05/27 12:29:50;;;;;;;16.75;5.28;;;35.50;37.80;;;;;;5089428;28;20055;-60
2022/05/27 12:32:23;;;;;;;11.80;5.75;;;35.70;37.40;;;;;;5097549;28;20020;-59
2022/05/27 12:34:50;;;;;;;19.17;6.18;;;35.70;37.00;;;;;;5087560;28;20126;-59
2022/05/27 12:37:24;;;;;;;22.42;8.13;;;35.90;35.80;;;;;;5098177;28;20082;-59
2022/05/27 12:40:12;;;;;;;22.17;7.00;;;34.70;36.70;;;;;;5101649;28;20035;-59
2022/05/27 12:42:41;;;;;;;41.15;9.05;;;34.80;38.00;;;;;;5103282;28;20036;-59
2022/05/27 12:45:56;;;;;;;22.33;8.05;;;35.20;38.70;;;;;;5106383;28;20024;-59
2022/05/27 12:48:39;;;;;;;17.20;6.78;;;35.90;38.10;;;;;;5041953;28;20092;-59
2022/05/27 12:51:08;;;;;;;22.60;7.57;;;36.20;37.70;;;;;;5070302;28;20095;-59
2022/05/27 12:53:56;;;;;;;24.70;7.75;;;36.40;38.40;;;;;;5080005;28;20036;-59
2022/05/27 13:02:16;;;;;;;23.00;6.30;;;36.10;38.70;;;;;;5087845;28;20028;-59
2022/05/27 13:04:49;;;;;;;20.90;7.18;;;36.30;35.50;;;;;;5083555;28;20059;-59
2022/05/27 13:07:20;;;;;;;27.10;8.80;;;36.20;35.00;;;;;;5091343;28;20029;-59
2022/05/27 13:09:47;;;;;;;20.27;6.85;;;36.20;35.50;;;;;;5082283;28;20030;-59
2022/05/27 13:12:44;;;;;;;20.50;7.25;;;35.70;37.40;;;;;;5100712;28;20024;-58
2022/05/27 13:15:31;;;;;;;17.63;6.68;;;35.60;38.00;;;;;;5083068;28;20021;-59
2022/05/27 13:18:26;;;;;;;17.70;6.35;;;35.60;37.90;;;;;;5096767;28;20474;-58
2022/05/27 13:20:52;;;;;;;16.15;6.47;;;34.70;37.80;;;;;;5076750;28;20052;-58
2022/05/27 13:23:21;;;;;;;19.77;7.65;;;34.70;39.20;;;;;;5091596;28;20040;-58
2022/05/27 13:26:16;;;;;;;25.50;7.70;;;34.30;38.80;;;;;;5097268;28;20036;-59
2022/05/27 13:28:57;;;;;;;21.60;7.55;;;34.70;39.00;;;;;;5112132;28;20081;-58
2022/05/27 13:31:31;;;;;;;24.30;8.50;;;35.20;40.50;;;;;;5117666;28;20058;-58
2022/05/27 13:34:05;;;;;;;22.05;7.32;;;35.30;36.80;;;;;;5117408;28;20106;-58
2022/05/27 13:36:49;;;;;;;16.35;6.43;;;35.00;37.70;;;;;;5117666;28;20039;-58
2022/05/27 13:39:20;;;;;;;30.92;8.68;;;34.90;37.70;;;;;;5117331;28;20036;-58
2022/05/27 13:41:49;;;;;;;36.13;8.57;;;34.40;37.40;;;;;;5117268;28;20074;-58